Old Milo, Arkansas
Current Conditions -  °F | °C
As of 8:35 PM on Friday 28 Nov 2014 (Local Time) from KBQP Reporting Station
Clear Clear  
Wind Chill: 48°   Ceiling: Unl
Heat Index: 50°   Visibility: 10mi
Dew Point: 35°   Wind: 6mph
Humidity: 57%   Direction: 170°S
Pressure: 30.17"   Gusts: NA
Location:  33.1762°N, 91.7595°W
Report Text: KBQP 290235Z AUTO 17005KT 10SM CLR 10/02 A3017 RMK AO2 T00990018
Loading
Personal Weather Stations






























Interactive Weather Map New forecast layout! Learn more

10-Day Weather Forecast

Advertisements
Track Severe Weather on mobile